Time;durP1;ratioP1;P1;durP2;ratioP2;P2;SDS_P1;SDS_P2;PMS_P1;PMS_P2;Temp;Humidity;BMP_temperature;BMP_pressure;BME280_temperature;BME280_humidity;BME280_pressure;Samples;Min_cycle;Max_cycle;Signal;HPM_P1;HPM_P2
2023/12/04 00:00:36;;;;;;;1.77;1.67;;;;;;;;;;5048271;28;20209;-84
2023/12/04 00:03:04;;;;;;;1.50;1.40;;;;;;;;;;5034769;28;20210;-84
2023/12/04 00:05:31;;;;;;;2.10;1.57;;;;;;;;;;5037230;28;20658;-84
2023/12/04 00:07:58;;;;;;;1.50;1.40;;;;;;;;;;5033197;28;20233;-82
2023/12/04 00:10:25;;;;;;;1.67;1.50;;;;;;;;;;5035350;28;20233;-82
2023/12/04 00:12:52;;;;;;;1.60;1.50;;;;;;;;;;5046482;28;20205;-83
2023/12/04 00:15:20;;;;;;;1.87;1.77;;;;;;;;;;5036412;28;20211;-83
2023/12/04 00:17:47;;;;;;;1.60;1.50;;;;;;;;;;5046720;28;20198;-82
2023/12/04 00:20:16;;;;;;;1.40;1.30;;;;;;;;;;5036123;28;20635;-83
2023/12/04 00:22:43;;;;;;;3.53;2.23;;;;;;;;;;5040453;28;20214;-83
2023/12/04 00:25:10;;;;;;;1.60;1.50;;;;;;;;;;5028617;27;20242;-83
2023/12/04 00:27:36;;;;;;;1.80;1.70;;;;;;;;;;5041285;28;20233;-84
2023/12/04 00:30:05;;;;;;;2.27;2.00;;;;;;;;;;5041061;28;20250;-84
2023/12/04 00:32:32;;;;;;;1.90;1.80;;;;;;;;;;5022223;28;20285;-83
2023/12/04 00:34:59;;;;;;;2.07;1.97;;;;;;;;;;5047061;28;20695;-83
2023/12/04 00:37:28;;;;;;;2.33;2.13;;;;;;;;;;5047549;28;20296;-82
2023/12/04 00:39:55;;;;;;;2.27;2.07;;;;;;;;;;5046880;28;20198;-83
2023/12/04 00:42:22;;;;;;;3.07;2.00;;;;;;;;;;5035674;28;20570;-83
2023/12/04 00:44:49;;;;;;;2.23;2.03;;;;;;;;;;5049813;28;20206;-83
2023/12/04 00:47:15;;;;;;;2.00;1.90;;;;;;;;;;5039743;28;20298;-83
2023/12/04 00:49:42;;;;;;;1.77;1.67;;;;;;;;;;5051008;28;20202;-83
2023/12/04 00:52:09;;;;;;;3.57;1.73;;;;;;;;;;5043377;28;20733;-84
2023/12/04 00:54:40;;;;;;;2.37;1.80;;;;;;;;;;5046435;28;20677;-84
2023/12/04 00:57:06;;;;;;;1.73;1.63;;;;;;;;;;5042363;28;20206;-83
2023/12/04 00:59:33;;;;;;;2.17;2.03;;;;;;;;;;5046681;28;20213;-83
2023/12/04 01:02:01;;;;;;;2.33;2.13;;;;;;;;;;5050714;28;20201;-83
2023/12/04 01:04:28;;;;;;;1.70;1.60;;;;;;;;;;5050978;27;20600;-83
2023/12/04 01:06:54;;;;;;;2.20;2.10;;;;;;;;;;5050572;28;20306;-84
2023/12/04 01:09:24;;;;;;;2.30;2.10;;;;;;;;;;5050655;28;20225;-82
2023/12/04 01:11:53;;;;;;;2.80;2.60;;;;;;;;;;5050966;28;20242;-84
2023/12/04 01:14:20;;;;;;;2.43;2.23;;;;;;;;;;5050207;28;20197;-83
2023/12/04 01:16:47;;;;;;;7.30;2.60;;;;;;;;;;5039649;28;20202;-83
2023/12/04 01:19:14;;;;;;;2.13;2.03;;;;;;;;;;5047453;28;20205;-83
2023/12/04 01:21:41;;;;;;;2.43;2.23;;;;;;;;;;5050577;28;20209;-83
2023/12/04 01:24:07;;;;;;;4.53;2.90;;;;;;;;;;5050443;28;20213;-83
2023/12/04 01:26:34;;;;;;;3.00;2.50;;;;;;;;;;5050134;28;20225;-83
2023/12/04 01:29:02;;;;;;;3.27;2.97;;;;;;;;;;5050154;28;20209;-83
2023/12/04 01:31:29;;;;;;;2.30;2.20;;;;;;;;;;5050923;28;20209;-82
2023/12/04 01:33:56;;;;;;;3.13;2.83;;;;;;;;;;5050254;28;20202;-83
2023/12/04 01:36:23;;;;;;;2.57;2.37;;;;;;;;;;5050336;28;20596;-82
2023/12/04 01:38:50;;;;;;;4.07;3.10;;;;;;;;;;5050235;28;20204;-82
2023/12/04 01:41:17;;;;;;;3.30;2.93;;;;;;;;;;5038932;28;20218;-81
2023/12/04 01:43:43;;;;;;;3.07;2.77;;;;;;;;;;5048260;28;20202;-81
2023/12/04 01:46:12;;;;;;;3.70;2.63;;;;;;;;;;5049869;28;20213;-80
2023/12/04 01:48:39;;;;;;;2.53;2.33;;;;;;;;;;5047504;28;20225;-81
2023/12/04 01:51:09;;;;;;;2.73;2.53;;;;;;;;;;5042082;28;20198;-80
2023/12/04 01:53:36;;;;;;;4.43;2.53;;;;;;;;;;5049866;28;20578;-81
2023/12/04 01:56:03;;;;;;;3.40;3.10;;;;;;;;;;5050285;28;20206;-80
2023/12/04 01:58:30;;;;;;;2.80;2.57;;;;;;;;;;5030497;28;20213;-82
2023/12/04 02:00:57;;;;;;;3.37;2.80;;;;;;;;;;5043458;28;20210;-81
2023/12/04 02:03:25;;;;;;;3.23;2.93;;;;;;;;;;5050210;28;20573;-81
2023/12/04 02:05:53;;;;;;;3.27;2.87;;;;;;;;;;5034813;28;20211;-81
2023/12/04 02:08:19;;;;;;;3.20;2.63;;;;;;;;;;5042458;28;20237;-81
2023/12/04 02:10:46;;;;;;;2.60;2.40;;;;;;;;;;5030899;28;20235;-81
2023/12/04 02:13:14;;;;;;;2.90;2.70;;;;;;;;;;5050038;28;20220;-81
2023/12/04 02:15:41;;;;;;;2.63;2.43;;;;;;;;;;5049466;28;20206;-81
2023/12/04 02:18:08;;;;;;;3.40;3.10;;;;;;;;;;5049797;28;20297;-80
2023/12/04 02:20:37;;;;;;;3.37;3.10;;;;;;;;;;5049469;28;20233;-81
2023/12/04 02:23:03;;;;;;;2.87;2.67;;;;;;;;;;5049092;28;20206;-81
2023/12/04 02:25:32;;;;;;;3.20;2.97;;;;;;;;;;5048922;28;20218;-81
2023/12/04 02:28:05;;;;;;;5.33;3.70;;;;;;;;;;5048934;28;20221;-81
2023/12/04 02:30:34;;;;;;;4.77;3.67;;;;;;;;;;5049146;28;20212;-82
2023/12/04 02:33:03;;;;;;;4.63;3.90;;;;;;;;;;5049924;28;20202;-81
2023/12/04 02:35:33;;;;;;;3.97;3.67;;;;;;;;;;5035933;28;20202;-81
2023/12/04 02:38:03;;;;;;;3.83;3.50;;;;;;;;;;5038064;28;20708;-82
2023/12/04 02:40:32;;;;;;;3.73;3.17;;;;;;;;;;5048447;28;20565;-81
2023/12/04 02:42:58;;;;;;;4.10;3.60;;;;;;;;;;5036933;28;20206;-81
2023/12/04 02:45:25;;;;;;;3.40;3.10;;;;;;;;;;5042358;28;20203;-81
2023/12/04 02:47:52;;;;;;;3.17;2.97;;;;;;;;;;5041860;28;20229;-81
2023/12/04 02:50:19;;;;;;;3.27;3.00;;;;;;;;;;5036125;28;20198;-81
2023/12/04 02:52:46;;;;;;;3.63;3.33;;;;;;;;;;5049336;28;20205;-81
2023/12/04 02:55:12;;;;;;;3.50;3.20;;;;;;;;;;5023298;28;20220;-81
2023/12/04 02:57:40;;;;;;;3.33;3.03;;;;;;;;;;5048737;28;20210;-81
2023/12/04 03:00:09;;;;;;;4.00;3.60;;;;;;;;;;5042133;28;20207;-81
2023/12/04 03:02:36;;;;;;;4.63;3.70;;;;;;;;;;5042708;28;20198;-80
2023/12/04 03:05:03;;;;;;;4.33;3.93;;;;;;;;;;5048533;28;20198;-81
2023/12/04 03:07:29;;;;;;;4.90;4.40;;;;;;;;;;5048131;28;20235;-81
2023/12/04 03:09:56;;;;;;;4.83;4.03;;;;;;;;;;5048724;28;20210;-81
2023/12/04 03:12:23;;;;;;;4.57;3.97;;;;;;;;;;5008926;28;20294;-81
2023/12/04 03:14:51;;;;;;;6.13;4.13;;;;;;;;;;5009024;28;20701;-81
2023/12/04 03:17:18;;;;;;;9.50;4.57;;;;;;;;;;4996167;28;20216;-81
2023/12/04 03:19:45;;;;;;;4.67;4.10;;;;;;;;;;5001613;28;20211;-81
2023/12/04 03:22:13;;;;;;;3.73;3.43;;;;;;;;;;5002508;28;20207;-81
2023/12/04 03:24:40;;;;;;;5.33;4.83;;;;;;;;;;4997766;28;20211;-81
2023/12/04 03:27:07;;;;;;;4.57;4.17;;;;;;;;;;5008550;28;20207;-81
2023/12/04 03:29:33;;;;;;;4.80;4.30;;;;;;;;;;5009196;28;20662;-81
2023/12/04 03:32:02;;;;;;;4.20;3.80;;;;;;;;;;4995658;28;20200;-81
2023/12/04 03:34:29;;;;;;;4.17;3.77;;;;;;;;;;5009484;28;20206;-81
2023/12/04 03:36:55;;;;;;;6.77;3.70;;;;;;;;;;4995678;28;20212;-81
2023/12/04 03:39:22;;;;;;;3.70;3.40;;;;;;;;;;5009203;28;20204;-81
2023/12/04 03:41:49;;;;;;;3.90;3.50;;;;;;;;;;5008670;28;20211;-80
2023/12/04 03:44:16;;;;;;;3.83;3.53;;;;;;;;;;5008908;28;20207;-81
2023/12/04 03:46:43;;;;;;;4.23;3.83;;;;;;;;;;5008302;28;20210;-81
2023/12/04 03:49:11;;;;;;;4.47;3.87;;;;;;;;;;4998880;28;20238;-81
2023/12/04 03:51:38;;;;;;;5.00;4.10;;;;;;;;;;5005173;28;20196;-81
2023/12/04 03:54:05;;;;;;;5.80;4.37;;;;;;;;;;5009047;28;20223;-82
2023/12/04 03:56:32;;;;;;;5.63;4.83;;;;;;;;;;5008186;28;20609;-80
2023/12/04 03:58:58;;;;;;;8.13;7.37;;;;;;;;;;5008670;28;20203;-80
2023/12/04 04:01:25;;;;;;;6.43;5.77;;;;;;;;;;5008124;28;20196;-82
2023/12/04 04:03:52;;;;;;;6.93;6.23;;;;;;;;;;5008282;28;20215;-81
2023/12/04 04:06:20;;;;;;;12.00;9.70;;;;;;;;;;4999712;28;20231;-80
2023/12/04 04:08:47;;;;;;;7.13;5.60;;;;;;;;;;5001670;28;20231;-81
2023/12/04 04:11:13;;;;;;;4.37;3.97;;;;;;;;;;5029628;28;20303;-81
2023/12/04 04:13:40;;;;;;;5.90;5.23;;;;;;;;;;5036623;28;20206;-82
2023/12/04 04:16:14;;;;;;;4.40;3.90;;;;;;;;;;5033591;28;20202;-82
2023/12/04 04:18:41;;;;;;;3.87;3.57;;;;;;;;;;5046351;28;20209;-82
2023/12/04 04:21:08;;;;;;;3.93;3.53;;;;;;;;;;5041110;28;20198;-82
2023/12/04 04:23:37;;;;;;;5.90;5.40;;;;;;;;;;5041363;28;20201;-82
2023/12/04 04:26:04;;;;;;;9.10;6.60;;;;;;;;;;5035840;28;20214;-83
2023/12/04 04:28:31;;;;;;;4.53;4.13;;;;;;;;;;5047809;28;20225;-82
2023/12/04 04:30:58;;;;;;;4.27;3.87;;;;;;;;;;5040293;28;20210;-82
2023/12/04 04:33:24;;;;;;;5.27;4.77;;;;;;;;;;5040708;28;20213;-82
2023/12/04 04:35:51;;;;;;;4.73;3.77;;;;;;;;;;5025428;28;20210;-80
2023/12/04 04:38:18;;;;;;;3.70;3.40;;;;;;;;;;5048055;28;20209;-82
2023/12/04 04:40:46;;;;;;;4.40;4.00;;;;;;;;;;5034479;28;20230;-84
2023/12/04 04:43:13;;;;;;;3.93;3.53;;;;;;;;;;5048069;28;20204;-83
2023/12/04 04:45:40;;;;;;;8.37;6.93;;;;;;;;;;5047386;28;20217;-82
2023/12/04 04:48:07;;;;;;;9.03;6.60;;;;;;;;;;5038710;28;20294;-83
2023/12/04 04:50:34;;;;;;;6.83;5.43;;;;;;;;;;5043352;28;20702;-82
2023/12/04 04:53:01;;;;;;;4.60;4.20;;;;;;;;;;5048111;28;20202;-83
2023/12/04 04:55:28;;;;;;;6.33;4.10;;;;;;;;;;5034608;27;20207;-83
2023/12/04 04:57:56;;;;;;;4.33;3.90;;;;;;;;;;5037388;28;20214;-83
2023/12/04 05:00:23;;;;;;;5.73;4.30;;;;;;;;;;5045177;28;20202;-83
2023/12/04 05:02:50;;;;;;;4.60;4.17;;;;;;;;;;5037387;28;20225;-83
2023/12/04 05:05:17;;;;;;;8.33;4.70;;;;;;;;;;5044694;28;20205;-87
2023/12/04 05:07:43;;;;;;;5.00;4.50;;;;;;;;;;5044031;28;20233;-83
2023/12/04 05:10:10;;;;;;;5.20;4.80;;;;;;;;;;5036447;28;20198;-82
2023/12/04 05:12:37;;;;;;;5.00;4.60;;;;;;;;;;5047537;28;20201;-83
2023/12/04 05:15:08;;;;;;;3.83;3.53;;;;;;;;;;5032715;27;20195;-83
2023/12/04 05:17:35;;;;;;;10.23;8.93;;;;;;;;;;5027968;28;20206;-83
2023/12/04 05:20:02;;;;;;;15.50;12.33;;;;;;;;;;5042355;28;20206;-83
2023/12/04 05:22:29;;;;;;;7.27;6.50;;;;;;;;;;5032671;28;20202;-89
2023/12/04 05:24:55;;;;;;;4.83;4.30;;;;;;;;;;5045337;28;20202;-84
2023/12/04 05:27:22;;;;;;;6.37;4.77;;;;;;;;;;5034988;28;20202;-84
2023/12/04 05:29:49;;;;;;;5.27;4.73;;;;;;;;;;5049434;28;20229;-84
2023/12/04 05:32:17;;;;;;;5.47;4.37;;;;;;;;;;5043660;28;20210;-85
2023/12/04 05:34:45;;;;;;;8.40;6.07;;;;;;;;;;5037247;28;20698;-85
2023/12/04 05:37:14;;;;;;;5.80;5.20;;;;;;;;;;5040777;28;20222;-86
2023/12/04 05:39:42;;;;;;;5.30;4.80;;;;;;;;;;5042933;28;20708;-85
2023/12/04 05:42:10;;;;;;;4.80;4.27;;;;;;;;;;4998346;28;20214;-86
2023/12/04 05:44:37;;;;;;;4.03;3.70;;;;;;;;;;5044428;28;20226;-86
2023/12/04 05:47:08;;;;;;;5.03;4.27;;;;;;;;;;5041645;28;20202;-85
2023/12/04 05:49:36;;;;;;;4.30;3.77;;;;;;;;;;5037492;28;20695;-85
2023/12/04 05:52:03;;;;;;;5.30;4.00;;;;;;;;;;5038938;28;20206;-85
2023/12/04 05:54:30;;;;;;;3.30;3.07;;;;;;;;;;5044883;28;20339;-86
2023/12/04 05:56:56;;;;;;;4.80;4.30;;;;;;;;;;5043824;27;20210;-86
2023/12/04 05:59:23;;;;;;;5.13;4.17;;;;;;;;;;5037010;28;20209;-86
2023/12/04 06:01:50;;;;;;;4.53;3.93;;;;;;;;;;5051103;28;20205;-85
2023/12/04 06:04:17;;;;;;;5.47;4.93;;;;;;;;;;5037653;28;20202;-86
2023/12/04 06:06:45;;;;;;;5.13;4.63;;;;;;;;;;5050622;28;20217;-86
2023/12/04 06:09:16;;;;;;;6.07;4.60;;;;;;;;;;5049319;28;20233;-86
2023/12/04 06:11:42;;;;;;;4.93;4.30;;;;;;;;;;5040057;28;20237;-86
2023/12/04 06:14:10;;;;;;;4.83;3.60;;;;;;;;;;5037245;28;20213;-86
2023/12/04 06:16:37;;;;;;;6.17;4.77;;;;;;;;;;5041212;28;20214;-86
2023/12/04 06:19:05;;;;;;;5.67;5.07;;;;;;;;;;5043936;28;20294;-86
2023/12/04 06:21:32;;;;;;;7.43;6.17;;;;;;;;;;5040135;28;20653;-86
2023/12/04 06:24:01;;;;;;;25.60;20.77;;;;;;;;;;5050285;28;20213;-86
2023/12/04 06:26:29;;;;;;;29.73;21.87;;;;;;;;;;5050684;28;20202;-86
2023/12/04 06:28:56;;;;;;;10.77;8.67;;;;;;;;;;5050326;28;20218;-86
2023/12/04 06:31:23;;;;;;;7.97;6.97;;;;;;;;;;5040007;28;20219;-86
2023/12/04 06:33:51;;;;;;;5.20;4.27;;;;;;;;;;5043884;28;20218;-86
2023/12/04 06:36:19;;;;;;;6.70;5.80;;;;;;;;;;5030062;28;20206;-86
2023/12/04 06:38:48;;;;;;;10.70;8.40;;;;;;;;;;5043493;28;20681;-86
2023/12/04 06:41:18;;;;;;;9.93;7.50;;;;;;;;;;5041419;28;20480;-86
2023/12/04 06:43:44;;;;;;;17.87;12.07;;;;;;;;;;5037109;28;20593;-86
2023/12/04 06:46:13;;;;;;;7.70;6.43;;;;;;;;;;5049918;28;20270;-87
2023/12/04 06:48:40;;;;;;;7.20;5.10;;;;;;;;;;5030496;28;20238;-86
2023/12/04 06:51:08;;;;;;;6.63;5.23;;;;;;;;;;5030378;28;20641;-86
2023/12/04 06:53:35;;;;;;;5.67;4.90;;;;;;;;;;5049762;28;20596;-86
2023/12/04 06:56:02;;;;;;;4.10;3.70;;;;;;;;;;5050280;28;20640;-86
2023/12/04 06:58:30;;;;;;;4.83;3.60;;;;;;;;;;5043679;28;20218;-86
2023/12/04 07:00:58;;;;;;;4.73;4.17;;;;;;;;;;5043947;28;20210;-86
2023/12/04 07:03:25;;;;;;;3.97;3.57;;;;;;;;;;5050539;28;20205;-87
2023/12/04 07:05:52;;;;;;;6.53;5.07;;;;;;;;;;5036083;28;20669;-87
2023/12/04 07:08:19;;;;;;;4.63;4.17;;;;;;;;;;5037931;28;20217;-87
2023/12/04 07:10:46;;;;;;;3.73;3.43;;;;;;;;;;5037067;27;20234;-87
2023/12/04 07:13:13;;;;;;;3.67;3.37;;;;;;;;;;5050135;28;20206;-87
2023/12/04 07:15:42;;;;;;;3.60;3.30;;;;;;;;;;5035648;28;20207;-87
2023/12/04 07:18:09;;;;;;;4.00;3.70;;;;;;;;;;5050195;28;20680;-87
2023/12/04 07:20:36;;;;;;;4.43;3.87;;;;;;;;;;5049818;28;20217;-88
2023/12/04 07:23:03;;;;;;;5.60;4.83;;;;;;;;;;5041632;28;20561;-88
2023/12/04 07:25:29;;;;;;;4.90;4.50;;;;;;;;;;5032569;28;20222;-88
2023/12/04 07:27:57;;;;;;;5.97;5.00;;;;;;;;;;5041080;27;20210;-88
2023/12/04 07:30:24;;;;;;;5.40;4.87;;;;;;;;;;5016563;28;20238;-88
2023/12/04 07:32:53;;;;;;;4.50;4.20;;;;;;;;;;5040056;28;20214;-88
2023/12/04 07:35:20;;;;;;;8.17;7.37;;;;;;;;;;5033233;28;20240;-88
2023/12/04 07:37:47;;;;;;;9.00;6.83;;;;;;;;;;5030108;28;20203;-88
2023/12/04 07:40:17;;;;;;;9.53;7.50;;;;;;;;;;5033897;28;20209;-88
2023/12/04 07:42:43;;;;;;;12.00;8.57;;;;;;;;;;5039240;28;20214;-88
2023/12/04 07:45:11;;;;;;;7.67;6.43;;;;;;;;;;5047882;28;20205;-88
2023/12/04 07:47:38;;;;;;;6.00;4.60;;;;;;;;;;5038880;28;20577;-88
2023/12/04 07:50:08;;;;;;;5.97;5.10;;;;;;;;;;5034762;28;20229;-88
2023/12/04 07:52:35;;;;;;;7.80;6.37;;;;;;;;;;5037669;28;20214;-88
2023/12/04 07:55:02;;;;;;;7.73;5.27;;;;;;;;;;5048487;28;20206;-88
2023/12/04 07:57:28;;;;;;;4.80;3.80;;;;;;;;;;5049661;28;20220;-87
2023/12/04 07:59:55;;;;;;;5.47;4.80;;;;;;;;;;5036311;28;20202;-87
2023/12/04 08:02:22;;;;;;;5.20;4.70;;;;;;;;;;5049219;28;20213;-87
2023/12/04 08:04:49;;;;;;;5.60;4.60;;;;;;;;;;5049246;28;20217;-87
2023/12/04 08:07:17;;;;;;;4.20;3.80;;;;;;;;;;5049265;28;20676;-88
2023/12/04 08:09:44;;;;;;;5.93;4.83;;;;;;;;;;5043461;28;20226;-88
2023/12/04 08:12:11;;;;;;;4.73;4.30;;;;;;;;;;5029741;28;20230;-86
2023/12/04 08:14:38;;;;;;;5.93;5.30;;;;;;;;;;5029985;28;20210;-88
2023/12/04 08:17:05;;;;;;;6.17;5.07;;;;;;;;;;5042374;28;20218;-88
2023/12/04 08:19:32;;;;;;;7.40;5.23;;;;;;;;;;5043026;28;20696;-88
2023/12/04 08:22:02;;;;;;;10.37;7.10;;;;;;;;;;5042363;28;20628;-88
2023/12/04 08:24:30;;;;;;;10.40;6.97;;;;;;;;;;5024144;28;20687;-88
2023/12/04 08:26:58;;;;;;;6.77;4.93;;;;;;;;;;5036060;28;20279;-88
2023/12/04 08:29:24;;;;;;;5.60;4.47;;;;;;;;;;5041598;28;20237;-89
2023/12/04 08:31:51;;;;;;;5.33;3.90;;;;;;;;;;5030847;28;20210;-88
2023/12/04 08:34:18;;;;;;;3.97;3.47;;;;;;;;;;5049524;28;20202;-89
2023/12/04 08:36:45;;;;;;;8.30;4.13;;;;;;;;;;5049016;28;20236;-89
2023/12/04 08:39:11;;;;;;;5.07;4.53;;;;;;;;;;5049536;28;20206;-89
2023/12/04 08:41:40;;;;;;;13.00;7.83;;;;;;;;;;5049123;28;20647;-89
2023/12/04 08:44:07;;;;;;;15.03;8.73;;;;;;;;;;5040141;28;20226;-89
2023/12/04 08:46:34;;;;;;;6.83;5.07;;;;;;;;;;5045038;28;20213;-89
2023/12/04 08:49:04;;;;;;;4.97;4.47;;;;;;;;;;5040091;28;20221;-89
2023/12/04 08:51:31;;;;;;;8.77;7.73;;;;;;;;;;5031691;28;20209;-89
2023/12/04 08:53:58;;;;;;;4.27;3.87;;;;;;;;;;5039593;28;20206;-89
2023/12/04 08:56:25;;;;;;;5.40;4.63;;;;;;;;;;5045559;28;20202;-89
2023/12/04 08:58:53;;;;;;;5.10;4.50;;;;;;;;;;5048739;28;20261;-89
2023/12/04 09:01:20;;;;;;;4.63;4.10;;;;;;;;;;5035755;28;20206;-89
2023/12/04 09:03:46;;;;;;;5.13;4.73;;;;;;;;;;5049656;28;20214;-89
2023/12/04 09:06:16;;;;;;;5.17;4.10;;;;;;;;;;5048056;28;20211;-89
2023/12/04 09:08:43;;;;;;;4.23;3.83;;;;;;;;;;5032822;28;20210;-89
2023/12/04 09:11:10;;;;;;;4.07;3.67;;;;;;;;;;5032807;28;20243;-89
2023/12/04 09:13:38;;;;;;;5.07;4.30;;;;;;;;;;5043613;28;20210;-89
2023/12/04 09:16:08;;;;;;;4.93;4.40;;;;;;;;;;5039124;27;20229;-89
2023/12/04 09:18:35;;;;;;;5.83;4.47;;;;;;;;;;5041025;27;20294;-89
2023/12/04 09:21:02;;;;;;;9.03;8.30;;;;;;;;;;5032341;28;20215;-89
2023/12/04 09:23:29;;;;;;;7.73;6.77;;;;;;;;;;5044153;28;20561;-89
2023/12/04 09:25:57;;;;;;;9.37;8.57;;;;;;;;;;5046664;28;20649;-89
2023/12/04 09:28:24;;;;;;;9.97;8.97;;;;;;;;;;5032477;28;20267;-89
2023/12/04 09:30:51;;;;;;;7.90;6.17;;;;;;;;;;5051698;28;20222;-89
2023/12/04 09:33:19;;;;;;;6.70;5.50;;;;;;;;;;5039446;28;20207;-90
2023/12/04 09:35:46;;;;;;;4.43;4.03;;;;;;;;;;5038960;28;20217;-89
2023/12/04 09:38:13;;;;;;;4.80;4.30;;;;;;;;;;5039349;28;20268;-90
2023/12/04 09:40:39;;;;;;;5.10;4.63;;;;;;;;;;5026291;28;20270;-90
2023/12/04 09:43:07;;;;;;;5.80;4.77;;;;;;;;;;5051332;27;20691;-89
2023/12/04 09:45:34;;;;;;;5.43;4.87;;;;;;;;;;5039314;28;20221;-89
2023/12/04 09:48:02;;;;;;;4.73;4.10;;;;;;;;;;5051956;28;20229;-90
2023/12/04 09:50:31;;;;;;;4.50;4.00;;;;;;;;;;5044120;28;20226;-89
2023/12/04 09:53:02;;;;;;;4.50;4.10;;;;;;;;;;5046688;28;20216;-89
2023/12/04 09:55:28;;;;;;;4.80;4.40;;;;;;;;;;5051957;28;20229;-90
2023/12/04 09:57:56;;;;;;;5.53;4.83;;;;;;;;;;5038360;28;20632;-90
2023/12/04 10:00:23;;;;;;;6.43;4.87;;;;;;;;;;5042526;28;20202;-90
2023/12/04 10:02:50;;;;;;;4.47;4.07;;;;;;;;;;5034367;28;20216;-90
2023/12/04 10:05:16;;;;;;;5.50;5.00;;;;;;;;;;5042357;28;20210;-90
2023/12/04 10:07:45;;;;;;;8.87;8.07;;;;;;;;;;5047831;28;20206;-90
2023/12/04 10:10:12;;;;;;;5.30;4.77;;;;;;;;;;5051104;28;20252;-90
2023/12/04 10:12:38;;;;;;;4.60;4.20;;;;;;;;;;5038679;27;20218;-89
2023/12/04 10:15:07;;;;;;;4.60;4.17;;;;;;;;;;5040342;28;20214;-90
2023/12/04 10:17:35;;;;;;;15.23;12.10;;;;;;;;;;5044869;28;20705;-90
2023/12/04 10:20:10;;;;;;;7.60;5.00;;;;;;;;;;5042269;28;20206;-89
2023/12/04 10:22:38;;;;;;;6.73;5.10;;;;;;;;;;5037854;28;20701;-90
2023/12/04 10:25:15;;;;;;;6.03;5.47;;;;;;;;;;5051890;27;20210;-90
2023/12/04 10:27:42;;;;;;;6.13;4.80;;;;;;;;;;5026180;28;20260;-90
2023/12/04 10:30:09;;;;;;;6.13;5.23;;;;;;;;;;5050268;28;20232;-90
2023/12/04 10:32:37;;;;;;;5.80;5.17;;;;;;;;;;5031300;28;20597;-90
2023/12/04 10:35:09;;;;;;;7.97;6.07;;;;;;;;;;5032362;28;20241;-90
2023/12/04 10:37:37;;;;;;;11.50;8.73;;;;;;;;;;5042402;28;20634;-90
2023/12/04 10:40:08;;;;;;;7.57;5.87;;;;;;;;;;5033618;28;20218;-90
2023/12/04 10:42:36;;;;;;;5.77;4.90;;;;;;;;;;5051234;28;20240;-91
2023/12/04 10:45:06;;;;;;;5.10;4.60;;;;;;;;;;5037431;28;20627;-90
2023/12/04 10:47:35;;;;;;;6.50;5.50;;;;;;;;;;5041100;28;20202;-89
2023/12/04 10:50:02;;;;;;;9.13;8.23;;;;;;;;;;5044250;28;20234;-90
2023/12/04 10:52:29;;;;;;;6.33;5.20;;;;;;;;;;5031336;28;20221;-90
2023/12/04 10:54:58;;;;;;;5.07;4.50;;;;;;;;;;5049105;28;20266;-89
2023/12/04 10:57:28;;;;;;;6.80;4.97;;;;;;;;;;5039138;27;20238;-90
2023/12/04 10:59:58;;;;;;;6.43;5.60;;;;;;;;;;5036793;28;20206;-90
2023/12/04 11:02:27;;;;;;;7.30;6.60;;;;;;;;;;5037941;28;20268;-90
2023/12/04 11:04:58;;;;;;;5.90;4.83;;;;;;;;;;5017820;28;20596;-90
2023/12/04 11:07:27;;;;;;;7.47;4.17;;;;;;;;;;5044707;28;20293;-90
2023/12/04 11:09:55;;;;;;;5.50;5.00;;;;;;;;;;5042299;28;20227;-90
2023/12/04 11:12:26;;;;;;;6.03;4.30;;;;;;;;;;5030684;28;20234;-90
2023/12/04 11:15:03;;;;;;;9.93;7.83;;;;;;;;;;5022937;28;20222;-89
2023/12/04 11:17:33;;;;;;;6.80;5.93;;;;;;;;;;5043098;28;20232;-90
2023/12/04 11:20:07;;;;;;;6.80;5.40;;;;;;;;;;5050261;28;20202;-90
2023/12/04 11:22:35;;;;;;;11.40;9.27;;;;;;;;;;5050216;28;20291;-90
2023/12/04 11:25:05;;;;;;;6.30;5.43;;;;;;;;;;5050421;28;20212;-90
2023/12/04 11:27:32;;;;;;;5.33;4.83;;;;;;;;;;5044489;28;20661;-90
2023/12/04 11:30:04;;;;;;;4.63;4.23;;;;;;;;;;5029951;28;20229;-89
2023/12/04 11:32:31;;;;;;;7.13;4.20;;;;;;;;;;5043577;28;20234;-90
2023/12/04 11:35:04;;;;;;;6.17;5.63;;;;;;;;;;5030876;28;20267;-90
2023/12/04 11:37:31;;;;;;;4.47;3.93;;;;;;;;;;5026204;28;20209;-90
2023/12/04 11:39:58;;;;;;;9.67;7.97;;;;;;;;;;5048790;28;20256;-90
2023/12/04 11:42:25;;;;;;;8.00;6.67;;;;;;;;;;5038904;28;20220;-90
2023/12/04 11:44:57;;;;;;;7.80;6.03;;;;;;;;;;5036938;28;20218;-90
2023/12/04 11:47:25;;;;;;;4.73;4.30;;;;;;;;;;5049979;28;20205;-90
2023/12/04 11:49:52;;;;;;;9.00;6.97;;;;;;;;;;5036499;28;20229;-90
2023/12/04 11:52:33;;;;;;;5.30;4.37;;;;;;;;;;5040233;28;20210;-90
2023/12/04 11:55:03;;;;;;;4.70;3.60;;;;;;;;;;5048660;28;20638;-90
2023/12/04 11:57:34;;;;;;;4.83;4.40;;;;;;;;;;5037672;28;20202;-90
2023/12/04 12:00:16;;;;;;;7.63;3.57;;;;;;;;;;5024000;28;20210;-90
2023/12/04 12:02:50;;;;;;;8.70;4.27;;;;;;;;;;5033992;28;20207;-90
2023/12/04 12:05:16;;;;;;;5.40;4.43;;;;;;;;;;5040067;28;20210;-90
2023/12/04 12:07:44;;;;;;;4.40;4.00;;;;;;;;;;5033438;28;20230;-90
2023/12/04 12:10:11;;;;;;;5.73;4.73;;;;;;;;;;5030431;28;20226;-90
2023/12/04 12:12:38;;;;;;;5.13;4.50;;;;;;;;;;5033188;28;20300;-90
2023/12/04 12:15:06;;;;;;;7.33;6.47;;;;;;;;;;5049659;28;20210;-90
2023/12/04 12:17:32;;;;;;;6.17;4.77;;;;;;;;;;5036100;28;20212;-90
2023/12/04 12:20:06;;;;;;;6.50;4.93;;;;;;;;;;5049083;28;20205;-90
2023/12/04 12:22:33;;;;;;;4.63;4.23;;;;;;;;;;5045181;28;20207;-90
2023/12/04 12:25:02;;;;;;;5.23;4.73;;;;;;;;;;5029747;28;20298;-90
2023/12/04 12:27:28;;;;;;;7.07;4.93;;;;;;;;;;5034662;28;20225;-90
2023/12/04 12:29:55;;;;;;;5.27;4.77;;;;;;;;;;5037429;27;20573;-90
2023/12/04 12:32:22;;;;;;;5.70;4.47;;;;;;;;;;5034847;28;20206;-90
2023/12/04 12:34:50;;;;;;;5.77;5.10;;;;;;;;;;5037463;28;20202;-90
2023/12/04 12:37:18;;;;;;;6.73;4.73;;;;;;;;;;5034958;28;20216;-90
2023/12/04 12:39:45;;;;;;;6.20;5.60;;;;;;;;;;5048655;28;20688;-90
2023/12/04 12:42:14;;;;;;;4.70;4.20;;;;;;;;;;5049228;28;20218;-90
2023/12/04 12:44:42;;;;;;;4.03;3.70;;;;;;;;;;5049063;28;20214;-90
2023/12/04 12:47:09;;;;;;;21.30;11.10;;;;;;;;;;5015846;28;20275;-90
2023/12/04 12:49:36;;;;;;;6.80;6.10;;;;;;;;;;5029978;28;20206;-90
2023/12/04 12:52:04;;;;;;;5.83;4.47;;;;;;;;;;5049423;28;20233;-90
2023/12/04 12:54:34;;;;;;;5.07;4.50;;;;;;;;;;5034532;27;20217;-90
2023/12/04 12:57:02;;;;;;;4.70;4.20;;;;;;;;;;5029760;28;20246;-90
2023/12/04 12:59:29;;;;;;;4.87;4.47;;;;;;;;;;5042889;28;20220;-91
2023/12/04 13:02:00;;;;;;;5.60;4.50;;;;;;;;;;5029342;28;20646;-90
2023/12/04 13:04:27;;;;;;;4.70;4.30;;;;;;;;;;5045270;28;20209;-91
2023/12/04 13:06:53;;;;;;;4.40;4.00;;;;;;;;;;5049181;28;20221;-90
2023/12/04 13:09:21;;;;;;;5.43;3.90;;;;;;;;;;5048164;28;20207;-90
2023/12/04 13:11:51;;;;;;;5.20;4.53;;;;;;;;;;5049136;28;20242;-90
2023/12/04 13:14:18;;;;;;;4.30;3.80;;;;;;;;;;5045484;28;20297;-91
2023/12/04 13:16:45;;;;;;;4.23;3.83;;;;;;;;;;5029040;28;20206;-90
2023/12/04 13:19:13;;;;;;;4.37;3.97;;;;;;;;;;5042655;28;20272;-90
2023/12/04 13:21:40;;;;;;;4.33;3.93;;;;;;;;;;5039609;28;20214;-90
2023/12/04 13:24:09;;;;;;;3.87;3.57;;;;;;;;;;5031637;28;20211;-91
2023/12/04 13:26:35;;;;;;;5.23;4.73;;;;;;;;;;5029077;28;20207;-90
2023/12/04 13:29:04;;;;;;;5.13;4.63;;;;;;;;;;5033029;28;20209;-90
2023/12/04 13:31:32;;;;;;;11.80;9.27;;;;;;;;;;5037309;28;20241;-90
2023/12/04 13:33:58;;;;;;;21.97;14.93;;;;;;;;;;5041948;28;20206;-89
2023/12/04 13:36:27;;;;;;;9.40;8.20;;;;;;;;;;5040300;28;20206;-91
2023/12/04 13:38:54;;;;;;;7.07;5.60;;;;;;;;;;5025277;28;20243;-88
2023/12/04 13:44:02;;;;;;;6.07;5.47;;;;;;;;;;5023328;28;20209;-91
2023/12/04 13:46:31;;;;;;;7.30;6.70;;;;;;;;;;5035759;27;20245;-91
2023/12/04 13:48:58;;;;;;;8.40;7.67;;;;;;;;;;5040822;28;20593;-91
2023/12/04 13:51:25;;;;;;;7.20;6.50;;;;;;;;;;5044433;28;20229;-90
2023/12/04 13:53:56;;;;;;;6.93;6.30;;;;;;;;;;5040500;28;20218;-91
2023/12/04 13:56:41;;;;;;;7.40;6.63;;;;;;;;;;5038398;28;20769;-90
2023/12/04 13:59:16;;;;;;;10.07;7.93;;;;;;;;;;5051953;27;20270;-90
2023/12/04 14:01:44;;;;;;;6.37;5.57;;;;;;;;;;5038312;28;20688;-90
2023/12/04 14:04:13;;;;;;;4.93;4.47;;;;;;;;;;5051663;28;20225;-90
2023/12/04 14:06:51;;;;;;;9.00;7.00;;;;;;;;;;5051576;28;20206;-89
2023/12/04 14:13:11;;;;;;;7.47;6.53;;;;;;;;;;5037439;27;20242;-89
2023/12/04 14:16:17;;;;;;;12.00;10.27;;;;;;;;;;5017187;28;20214;-90
2023/12/04 14:18:45;;;;;;;11.77;8.00;;;;;;;;;;5048085;27;20711;-90
2023/12/04 14:21:14;;;;;;;11.13;9.53;;;;;;;;;;5051216;28;20210;-90
2023/12/04 14:23:41;;;;;;;14.80;11.80;;;;;;;;;;5051255;28;20202;-90
2023/12/04 14:26:08;;;;;;;13.83;11.90;;;;;;;;;;5044920;28;20210;-90
2023/12/04 14:28:35;;;;;;;18.77;13.43;;;;;;;;;;5045091;28;20691;-90
2023/12/04 14:31:02;;;;;;;26.17;21.40;;;;;;;;;;5044366;28;20227;-90
2023/12/04 14:33:28;;;;;;;23.60;21.10;;;;;;;;;;5045749;28;20210;-90
2023/12/04 14:35:57;;;;;;;14.63;13.13;;;;;;;;;;5051092;28;20202;-90
2023/12/04 14:38:24;;;;;;;13.53;10.67;;;;;;;;;;5051377;28;20217;-90
2023/12/04 14:40:51;;;;;;;18.87;15.40;;;;;;;;;;5051191;27;20220;-90
2023/12/04 14:43:17;;;;;;;13.40;11.97;;;;;;;;;;5050541;27;20219;-89
2023/12/04 14:45:44;;;;;;;13.67;10.43;;;;;;;;;;5050934;28;20216;-90
2023/12/04 14:48:12;;;;;;;14.43;12.07;;;;;;;;;;5037648;28;20380;-90
2023/12/04 14:50:39;;;;;;;15.53;13.40;;;;;;;;;;5042507;28;20199;-90